Station info - map view · info · telemetry · weather · raw · status · beacons · messages · bulletins · browse · moving · my account
Callsign, ship name or locator: Clear       
It is possible to search using wildcards (*?) after a prefix. Example: OH*
APRS station OZ0CAB-7 - show graphs
Map loading...
Mic-E message: In service
Location: 55°50.64' N 11°59.14' E - locator JO55XU82GN - show map - static map
1.0 miles Southeast bearing 139° from Jægerspris (Jaegerspris), Frederikssund Kommune, Capital Region, Denmark [?]
3.2 miles West bearing 275° from Frederikssund, Frederikssund Kommune, Capital Region, Denmark
25.3 miles Northwest bearing 297° from Copenhagen, Københavns Kommune, Capital Region, Denmark
42.8 miles Northwest bearing 293° from Malmö (Malmoe), Malmö Kommun, Skåne, Sweden
Last position: 2018-02-22 12:19:55 EST (9h28m ago)
2018-02-22 18:19:55 CET local time at Jægerspris, Denmark [?]
Altitude: 92 ft
Course: 218°
Speed: 12 MPH
Last telemetry: 2014-02-23 09:26:40 EST (1460d 12h21m ago) – show telemetry
Ch 1: 126, Ch 2: 82, Ch 3: 999, Ch 4: 311, Ch 5: 231
 1     2     3     4     5     6     7     8 
Device: Yaesu: FTM-400DR (rig)
Last path: OZ0CAB-7>U5UP64 via WIDE1-1,WIDE2-1,qAR,OZ0DMR-1 (good)
Positions stored: 1140117
Packet rate: 75 seconds between packets on average during 3733 seconds.
Stations near current position of OZ0CAB-7 - show more
callsign distance last heard - EST      callsign distance last heard - EST
OZ1IEP-9244.1 yards 185°2018-02-22 09:51:03 OZ1IEP-5255.4 yards 209°2018-02-22 16:18:08
OZ5DIB-1255.4 yards 209°2018-02-22 15:27:35 OZ1IEP-4255.4 yards 209°2018-02-22 15:27:58
OV8LR-102.0 miles 156°2018-02-12 05:35:18 OV8LR-92.1 miles 156°2018-02-22 12:09:20
OV8LR-82.1 miles 156°2018-02-22 20:34:06 OV8LR-72.1 miles 156°2018-02-22 21:46:10
OZ1IEP-83.9 miles 150°2018-02-22 13:23:45 EW76344.2 miles 144°2018-02-22 21:39:21
OZ2KRT-DP4.4 miles 112°2018-02-22 21:47:45 OZ2REX B4.6 miles 111°2018-02-22 21:38:03
OZ2REX-B4.6 miles 111°2018-02-22 21:38:13 OZ6FRS-34.6 miles 111°2018-02-22 21:11:43
TRAFIK_5.6 miles 359°2018-02-22 16:08:58 OZ9PBJ-76.2 miles 54°2018-02-22 21:31:11
EW45507.1 miles 86°2018-02-22 21:45:07 OZ3TDC-17.9 miles 132°2018-02-19 14:35:37
OZ3ACC-17.9 miles 132°2018-02-22 21:28:53 OZ3ACC-97.9 miles 132°2018-02-10 15:54:06
Stations which heard OZ0CAB-7 directly on radio –
callsign pkts first heard - EST last heard longest (tx => rx) longest at - EST
OZ4DIE-2 6149 2018-02-01 00:54:15 2018-02-22 11:17:47 JD04AM > JO65FR 7712.0 miles 8° 2018-02-17 17:54:18
OZ5DIB-1 1619 2018-02-01 00:48:05 2018-02-22 12:19:57 JO65GP > JO55XU 26.9 miles 302° 2018-02-13 03:34:37
OZ6FRS-3 2088 2018-02-01 00:48:06 2018-02-22 12:19:56 JO65GP > JO65BT 22.8 miles 305° 2018-02-22 08:43:41
OZ7AMG-3 2413 2018-02-01 02:34:35 2018-02-22 10:43:03 JD04AI > JO65HP 7714.9 miles 8° 2018-02-17 05:47:22
OZ1IEP-4 547 2018-02-01 01:02:11 2018-02-22 12:18:07 JO65FQ > JO55XU 20.3 miles 302° 2018-02-14 02:52:59
OZ2GRE-3 1 2018-02-21 10:35:26 2018-02-21 10:35:26 JO65FO > JO65DO 7.6 miles 255° 2018-02-21 10:35:26
OZ5DIQ-1 44 2018-02-16 09:35:04 2018-02-22 11:01:13 JO65CS > JO65GT 13.6 miles 86° 2018-02-19 01:27:59
OZ9DIG-1 4864 2018-02-01 02:06:35 2018-02-22 10:49:11 JD04AI > JO65GQ 7717.1 miles 8° 2018-02-03 06:31:42
OZ5DSL-1 8 2018-02-01 11:36:20 2018-02-14 02:08:49 JO65GO > JO55QJ 48.6 miles 251° 2018-02-08 01:50:11
OZ6REC-1 157 2018-02-01 00:52:48 2018-02-22 01:40:56 JO65DT > JO55TP 27.7 miles 246° 2018-02-06 01:34:26
OZ4DIQ-2 30 2018-02-11 10:53:24 2018-02-13 01:51:34 JO65AW > JO65EX 14.3 miles 83° 2018-02-13 01:21:32
OZ7HVO-1 2 2018-02-05 02:10:05 2018-02-05 02:10:55 JO65FQ > JO65FQ 229.7 yards 345° 2018-02-05 02:10:55
SK7DS-2 682 2018-02-01 04:50:25 2018-02-22 10:23:58 IO35RR > JO65JW 979.6 miles 79° 2018-02-12 02:50:44
OZ9AEC-3 158 2018-02-01 04:46:54 2018-02-22 09:25:03 JO65IO > JO65HQ 6.2 miles 336° 2018-02-16 08:13:38
OZ5X-1 531 2018-02-01 00:48:04 2018-02-22 12:19:16 JO65DW > JO55UV 25.8 miles 264° 2018-02-11 11:23:06
OZ0DMR-1 1557 2018-02-01 00:48:59 2018-02-22 12:19:55 JO65GT > JO55VN 33.5 miles 237° 2018-02-14 03:52:59
OZ4QZZ-2 1 2018-02-22 01:18:15 2018-02-22 01:18:15 JO65BS > JO55PI 43.3 miles 228° 2018-02-22 01:18:15

Only position packets which were originated by the station are shown here. The range statistics show some extra long hops, because some digipeaters do not correctly add themselves to the digipeater path. Please check the raw packets.
About this site
This page shows real-time information collected from the Automatic Position Reporting System Internet network (APRS-IS). APRS is used by amateur (ham) radio operators to transmit real-time position information, weather data, telemetry and messages over the radio. A vehicle equipped with a GPS receiver, a VHF transmitter or HF transceiver and a small computer device called a tracker transmits it's location, speed and course in a small data packet, which is then received by a nearby iGate receiving site which forwards the packet on the Internet. Systems connected to the Internet can send information on the APRS-IS without a radio transmitter, or collect and display information transmitted anywhere in the world.
FAQ · Blog · Discussion group · Linking to aprs.fi · AIS sites · Service status · Database statistics · Advertising on aprs.fi · Technical details · API · Change log · Planned changes · Credits and thanks · Terms Of Service · iPhone/iPad APRS